Time;durP1;ratioP1;P1;durP2;ratioP2;P2;SDS_P1;SDS_P2;PMS_P1;PMS_P2;Temp;Humidity;BMP_temperature;BMP_pressure;BME280_temperature;BME280_humidity;BME280_pressure;Samples;Min_cycle;Max_cycle;Signal;HPM_P1;HPM_P2
2022/08/22 00:00:12;;;;;;;350.00;196.20;;;;;;;;;;4983320;28;20305;-67
2022/08/22 00:02:51;;;;;;;326.70;183.03;;;;;;;;;;4978563;28;20210;-68
2022/08/22 00:05:26;;;;;;;329.33;179.87;;;;;;;;;;4980598;28;20655;-67
2022/08/22 00:07:54;;;;;;;342.17;187.20;;;;;;;;;;4980741;28;20348;-67
2022/08/22 00:10:41;;;;;;;337.50;186.80;;;;;;;;;;4978232;28;20229;-67
2022/08/22 00:13:10;;;;;;;359.17;200.13;;;;;;;;;;4968920;28;20320;-67
2022/08/22 00:15:43;;;;;;;356.13;199.57;;;;;;;;;;4981554;28;20690;-67
2022/08/22 00:18:21;;;;;;;326.97;183.47;;;;;;;;;;4980315;28;20188;-67
2022/08/22 00:21:05;;;;;;;335.27;186.40;;;;;;;;;;4997085;28;20221;-68
2022/08/22 00:23:37;;;;;;;352.40;194.33;;;;;;;;;;4979570;28;20305;-67
2022/08/22 00:26:06;;;;;;;325.63;181.73;;;;;;;;;;4993778;28;20216;-67
2022/08/22 00:28:37;;;;;;;353.90;195.20;;;;;;;;;;5001185;28;20327;-67
2022/08/22 00:31:21;;;;;;;324.60;181.87;;;;;;;;;;5000428;28;20559;-67
2022/08/22 00:33:59;;;;;;;339.00;186.97;;;;;;;;;;4999397;28;20216;-67
2022/08/22 00:36:29;;;;;;;357.83;199.10;;;;;;;;;;4997665;28;20204;-68
2022/08/22 00:39:05;;;;;;;394.60;213.20;;;;;;;;;;4994175;28;20276;-68
2022/08/22 00:41:42;;;;;;;354.20;195.33;;;;;;;;;;5000693;28;20208;-68
2022/08/22 00:44:15;;;;;;;338.30;186.23;;;;;;;;;;5001709;28;20216;-68
2022/08/22 00:46:53;;;;;;;374.93;206.03;;;;;;;;;;5001562;28;20297;-68
2022/08/22 00:49:22;;;;;;;347.37;190.97;;;;;;;;;;4997027;28;20725;-68
2022/08/22 00:51:59;;;;;;;352.17;193.30;;;;;;;;;;4993349;28;20316;-68
2022/08/22 00:54:31;;;;;;;349.10;194.70;;;;;;;;;;4997264;28;20674;-69
2022/08/22 00:57:13;;;;;;;333.70;185.87;;;;;;;;;;4999312;28;20180;-68
2022/08/22 00:59:45;;;;;;;378.50;210.43;;;;;;;;;;4995522;28;20884;-68
2022/08/22 01:02:30;;;;;;;331.67;187.60;;;;;;;;;;5001593;28;20221;-68
2022/08/22 01:05:06;;;;;;;332.33;186.40;;;;;;;;;;4999072;28;20255;-68
2022/08/22 01:07:43;;;;;;;370.80;199.70;;;;;;;;;;4996321;28;20943;-68
2022/08/22 01:10:13;;;;;;;374.15;202.80;;;;;;;;;;4995974;28;20247;-68
2022/08/22 01:12:55;;;;;;;386.23;212.47;;;;;;;;;;4996587;28;20622;-68
2022/08/22 01:15:26;;;;;;;400.00;218.63;;;;;;;;;;4995030;28;20191;-66
2022/08/22 01:18:11;;;;;;;362.50;197.67;;;;;;;;;;4994478;28;20209;-68
2022/08/22 01:20:37;;;;;;;364.03;199.67;;;;;;;;;;4998058;28;20219;-68
2022/08/22 01:23:18;;;;;;;336.83;185.77;;;;;;;;;;5001567;28;20633;-68
2022/08/22 01:26:15;;;;;;;407.40;216.87;;;;;;;;;;5002990;28;20209;-68
2022/08/22 01:28:41;;;;;;;407.63;218.70;;;;;;;;;;4995821;28;20228;-68
2022/08/22 01:31:30;;;;;;;355.13;193.20;;;;;;;;;;5012527;28;20212;-68
2022/08/22 01:34:15;;;;;;;368.40;197.87;;;;;;;;;;4998976;28;20213;-67
2022/08/22 01:37:00;;;;;;;369.57;203.53;;;;;;;;;;5006738;28;20228;-68
2022/08/22 01:39:26;;;;;;;380.67;210.83;;;;;;;;;;5001033;28;20228;-67
2022/08/22 01:42:11;;;;;;;348.77;194.93;;;;;;;;;;4999085;28;20761;-68
2022/08/22 01:44:51;;;;;;;375.17;205.23;;;;;;;;;;4999406;28;20725;-67
2022/08/22 01:47:20;;;;;;;329.17;181.50;;;;;;;;;;5003349;28;20219;-68
2022/08/22 01:49:48;;;;;;;353.20;196.70;;;;;;;;;;4998055;28;20227;-68
2022/08/22 01:52:28;;;;;;;333.23;184.83;;;;;;;;;;5001987;28;20269;-68
2022/08/22 01:54:57;;;;;;;335.87;186.60;;;;;;;;;;5007317;28;20692;-68
2022/08/22 01:57:25;;;;;;;345.63;191.73;;;;;;;;;;4998096;28;20229;-67
2022/08/22 01:59:53;;;;;;;339.13;189.03;;;;;;;;;;4993689;28;20555;-68
2022/08/22 02:02:37;;;;;;;351.23;197.93;;;;;;;;;;4999037;28;20924;-68
2022/08/22 02:05:08;;;;;;;358.87;201.23;;;;;;;;;;4998657;28;20208;-67
2022/08/22 02:07:43;;;;;;;352.80;194.90;;;;;;;;;;5003429;28;20287;-68
2022/08/22 02:10:22;;;;;;;338.50;189.03;;;;;;;;;;5001859;28;20689;-67
2022/08/22 02:13:07;;;;;;;330.67;183.07;;;;;;;;;;4996432;28;20235;-68
2022/08/22 02:15:39;;;;;;;370.67;208.93;;;;;;;;;;4997597;28;20219;-68
2022/08/22 02:18:05;;;;;;;341.07;190.90;;;;;;;;;;5004283;28;20419;-68
2022/08/22 02:20:43;;;;;;;336.77;188.33;;;;;;;;;;5005078;28;20363;-68
2022/08/22 02:23:09;;;;;;;340.50;190.47;;;;;;;;;;5004468;28;20208;-68
2022/08/22 02:25:48;;;;;;;410.77;224.70;;;;;;;;;;4999622;28;20212;-68
2022/08/22 02:28:27;;;;;;;354.30;194.10;;;;;;;;;;5002864;28;20595;-67
2022/08/22 02:30:53;;;;;;;336.77;186.67;;;;;;;;;;4999318;28;20565;-67
2022/08/22 02:33:29;;;;;;;341.00;188.10;;;;;;;;;;4998627;28;20180;-68
2022/08/22 02:36:00;;;;;;;367.13;206.37;;;;;;;;;;4978630;28;20225;-68
2022/08/22 02:38:34;;;;;;;345.17;193.73;;;;;;;;;;4992644;28;20220;-68
2022/08/22 02:41:09;;;;;;;354.97;199.37;;;;;;;;;;4993850;28;20315;-67
2022/08/22 02:43:39;;;;;;;350.43;192.60;;;;;;;;;;4995477;28;20707;-68
2022/08/22 02:46:14;;;;;;;354.93;195.17;;;;;;;;;;4995407;28;20216;-68
2022/08/22 02:48:48;;;;;;;393.40;214.97;;;;;;;;;;4981704;28;20208;-68
2022/08/22 02:51:33;;;;;;;345.50;194.23;;;;;;;;;;4978026;28;20224;-68
2022/08/22 02:54:15;;;;;;;347.60;185.40;;;;;;;;;;4996603;28;20213;-68
2022/08/22 02:57:01;;;;;;;351.02;191.77;;;;;;;;;;4979843;28;20679;-68
2022/08/22 02:59:27;;;;;;;330.60;183.07;;;;;;;;;;4974033;28;20213;-68
2022/08/22 03:01:54;;;;;;;367.97;210.47;;;;;;;;;;4976011;28;20618;-68
2022/08/22 03:04:23;;;;;;;338.40;186.43;;;;;;;;;;4978148;28;20213;-68
2022/08/22 03:06:58;;;;;;;363.03;199.17;;;;;;;;;;4975112;28;20711;-69
2022/08/22 03:09:29;;;;;;;328.33;187.90;;;;;;;;;;4977730;28;20279;-69
2022/08/22 03:12:15;;;;;;;377.00;215.70;;;;;;;;;;4971416;28;20205;-68
2022/08/22 03:14:44;;;;;;;365.77;202.67;;;;;;;;;;4974115;28;20217;-69
2022/08/22 03:17:15;;;;;;;360.00;207.67;;;;;;;;;;4975084;28;20222;-69
2022/08/22 03:19:41;;;;;;;353.90;201.70;;;;;;;;;;4978250;23;20305;31
2022/08/22 03:22:09;;;;;;;323.47;167.57;;;;;;;;;;5001852;23;20255;-74
2022/08/22 03:24:38;;;;;;;387.60;205.13;;;;;;;;;;4997603;28;20216;-74
2022/08/22 03:27:09;;;;;;;326.90;173.73;;;;;;;;;;4999493;28;20535;-74
2022/08/22 03:29:43;;;;;;;322.53;171.40;;;;;;;;;;4997383;28;20213;-75
2022/08/22 03:32:11;;;;;;;296.97;161.93;;;;;;;;;;4995468;28;20259;-74
2022/08/22 03:34:38;;;;;;;323.37;173.97;;;;;;;;;;4999022;28;20208;-75
2022/08/22 03:37:16;;;;;;;303.60;170.57;;;;;;;;;;4995975;28;20213;-74
2022/08/22 03:39:54;;;;;;;341.80;186.67;;;;;;;;;;4993472;28;20212;-74
2022/08/22 03:42:21;;;;;;;295.47;165.13;;;;;;;;;;4997624;28;20201;-74
2022/08/22 03:45:05;;;;;;;327.13;177.77;;;;;;;;;;4997929;28;20209;-74
2022/08/22 03:47:42;;;;;;;287.20;159.80;;;;;;;;;;4995660;28;20224;-74
2022/08/22 03:50:19;;;;;;;285.87;160.23;;;;;;;;;;4995054;28;20228;-75
2022/08/22 03:53:06;;;;;;;311.17;170.10;;;;;;;;;;4998976;28;20235;-75
2022/08/22 03:55:50;;;;;;;301.87;160.80;;;;;;;;;;4997734;28;20661;-74
2022/08/22 03:58:35;;;;;;;337.80;177.87;;;;;;;;;;4999908;28;20212;-75
2022/08/22 04:01:18;;;;;;;283.60;159.40;;;;;;;;;;4996185;28;20928;-74
2022/08/22 04:04:03;;;;;;;359.87;193.53;;;;;;;;;;4995068;28;20664;-74
2022/08/22 04:06:35;;;;;;;306.43;166.03;;;;;;;;;;4994497;28;21674;-74
2022/08/22 04:09:10;;;;;;;312.27;168.83;;;;;;;;;;5001929;28;20225;-73
2022/08/22 04:11:37;;;;;;;350.70;191.67;;;;;;;;;;4988912;28;20804;-73
2022/08/22 04:14:23;;;;;;;321.77;176.00;;;;;;;;;;4999324;28;21336;-73
2022/08/22 04:17:07;;;;;;;384.50;203.80;;;;;;;;;;4994843;28;21088;-73
2022/08/22 04:19:56;;;;;;;293.70;158.80;;;;;;;;;;4996930;28;20200;-73
2022/08/22 04:22:41;;;;;;;272.80;151.33;;;;;;;;;;5001258;28;20733;-74
2022/08/22 04:25:11;;;;;;;300.77;164.47;;;;;;;;;;5001364;28;20902;-74
2022/08/22 04:27:37;;;;;;;306.73;171.57;;;;;;;;;;5001181;28;20658;-74
2022/08/22 04:30:15;;;;;;;317.27;176.87;;;;;;;;;;4993124;28;25059;-73
2022/08/22 04:32:44;;;;;;;297.07;167.47;;;;;;;;;;4996470;28;20217;-74
2022/08/22 04:35:10;;;;;;;288.47;163.47;;;;;;;;;;4997101;28;20267;-74
2022/08/22 04:37:39;;;;;;;289.17;156.30;;;;;;;;;;4998785;28;20212;-74
2022/08/22 04:40:05;;;;;;;303.20;161.17;;;;;;;;;;4997673;28;20539;-74
2022/08/22 04:42:35;;;;;;;267.57;147.70;;;;;;;;;;4995466;28;20405;-74
2022/08/22 04:45:13;;;;;;;327.33;169.33;;;;;;;;;;4997101;28;20666;-74
2022/08/22 04:47:59;;;;;;;302.07;159.63;;;;;;;;;;4993915;28;20251;-74
2022/08/22 04:50:31;;;;;;;281.27;149.87;;;;;;;;;;4997175;28;20225;-74
2022/08/22 04:53:16;;;;;;;291.30;155.70;;;;;;;;;;4992584;28;20246;-73
2022/08/22 04:55:58;;;;;;;330.77;174.73;;;;;;;;;;4992405;28;20225;-73
2022/08/22 04:58:38;;;;;;;271.40;147.90;;;;;;;;;;4994708;28;20217;-73
2022/08/22 05:01:10;;;;;;;313.70;170.20;;;;;;;;;;5000236;28;20223;-73
2022/08/22 05:03:38;;;;;;;340.57;184.83;;;;;;;;;;4994587;28;20249;-74
2022/08/22 05:06:05;;;;;;;317.70;175.33;;;;;;;;;;5004730;28;20217;-74
2022/08/22 05:08:33;;;;;;;296.88;159.88;;;;;;;;;;5003246;28;20260;-74
2022/08/22 05:11:01;;;;;;;341.60;181.33;;;;;;;;;;5002536;28;20620;-75
2022/08/22 05:13:32;;;;;;;300.20;159.98;;;;;;;;;;5000689;28;20204;-75
2022/08/22 05:16:02;;;;;;;319.95;169.45;;;;;;;;;;4997893;28;20255;-73
2022/08/22 05:18:42;;;;;;;314.88;170.55;;;;;;;;;;4986886;28;20174;-73
2022/08/22 05:21:08;;;;;;;283.87;151.70;;;;;;;;;;4998421;28;20217;-73
2022/08/22 05:23:37;;;;;;;299.30;157.83;;;;;;;;;;5003092;28;20212;-73
2022/08/22 05:26:04;;;;;;;315.85;166.40;;;;;;;;;;5002153;28;20304;-72
2022/08/22 05:28:50;;;;;;;291.15;159.57;;;;;;;;;;5001454;28;20234;-73
2022/08/22 05:31:19;;;;;;;292.67;166.75;;;;;;;;;;4998490;28;20316;-73
2022/08/22 05:33:50;;;;;;;300.95;169.70;;;;;;;;;;5001980;28;20212;-72
2022/08/22 05:36:21;;;;;;;300.98;168.93;;;;;;;;;;5003247;28;20585;-73
2022/08/22 05:38:50;;;;;;;328.75;182.48;;;;;;;;;;5004936;28;20236;-72
2022/08/22 05:41:22;;;;;;;324.67;172.93;;;;;;;;;;4998455;28;20312;-72
2022/08/22 05:43:49;;;;;;;349.48;188.77;;;;;;;;;;5001046;28;20296;-72
2022/08/22 05:46:38;;;;;;;318.27;176.00;;;;;;;;;;4997271;28;20301;-72
2022/08/22 05:49:06;;;;;;;339.90;184.95;;;;;;;;;;4993881;28;20512;-73
2022/08/22 05:51:49;;;;;;;307.10;174.45;;;;;;;;;;5005527;28;20304;-74
2022/08/22 05:54:18;;;;;;;305.98;173.50;;;;;;;;;;5005337;28;20182;-74
2022/08/22 05:56:46;;;;;;;348.23;188.25;;;;;;;;;;5000323;28;20213;-73
2022/08/22 05:59:19;;;;;;;312.80;170.98;;;;;;;;;;5000942;28;20220;-73
2022/08/22 06:01:48;;;;;;;375.13;210.18;;;;;;;;;;4994604;28;20223;-72
2022/08/22 06:04:19;;;;;;;343.42;193.55;;;;;;;;;;4984697;28;20304;-76
2022/08/22 06:06:45;;;;;;;330.70;180.25;;;;;;;;;;5000904;28;20216;-77
2022/08/22 06:09:14;;;;;;;342.38;194.15;;;;;;;;;;5000058;28;20199;-74
2022/08/22 06:11:42;;;;;;;320.30;186.88;;;;;;;;;;4995263;28;20225;-75
2022/08/22 06:14:17;;;;;;;345.88;193.80;;;;;;;;;;4980332;28;20375;-76
2022/08/22 06:16:50;;;;;;;335.90;188.43;;;;;;;;;;4985579;28;22734;-74
2022/08/22 06:19:18;;;;;;;390.40;215.52;;;;;;;;;;5002602;28;20796;-76
2022/08/22 06:21:45;;;;;;;336.52;190.38;;;;;;;;;;5001576;28;20306;-75
2022/08/22 06:24:20;;;;;;;327.73;185.63;;;;;;;;;;5000981;28;20646;-73
2022/08/22 06:26:48;;;;;;;339.88;189.43;;;;;;;;;;5001509;28;20271;-72
2022/08/22 06:29:17;;;;;;;354.30;200.02;;;;;;;;;;4997054;28;20264;-73
2022/08/22 06:31:46;;;;;;;388.92;217.50;;;;;;;;;;4993426;28;20219;-74
2022/08/22 06:34:28;;;;;;;360.40;201.52;;;;;;;;;;4998184;28;20706;-69
2022/08/22 06:36:55;;;;;;;384.90;207.80;;;;;;;;;;4986618;28;20220;-71
2022/08/22 06:39:24;;;;;;;328.13;181.88;;;;;;;;;;4991483;28;20220;-69
2022/08/22 06:41:52;;;;;;;326.65;183.50;;;;;;;;;;4998785;28;20236;-69
2022/08/22 06:44:27;;;;;;;431.33;228.13;;;;;;;;;;4994258;28;21062;-68
2022/08/22 06:46:54;;;;;;;502.48;273.27;;;;;;;;;;4990018;28;20224;-69
2022/08/22 06:49:22;;;;;;;364.48;199.77;;;;;;;;;;4990027;28;20414;-69
2022/08/22 06:51:48;;;;;;;363.60;204.43;;;;;;;;;;4999611;28;20224;-61
2022/08/22 06:54:18;;;;;;;324.60;183.18;;;;;;;;;;4993933;28;20585;-61
2022/08/22 06:56:45;;;;;;;329.25;182.48;;;;;;;;;;4999041;28;20270;-61
2022/08/22 06:59:13;;;;;;;401.38;215.13;;;;;;;;;;4990498;28;20222;-61
2022/08/22 07:01:46;;;;;;;392.27;217.68;;;;;;;;;;4991057;28;20249;-61
2022/08/22 07:04:13;;;;;;;363.80;201.95;;;;;;;;;;4996598;28;20227;-59
2022/08/22 07:06:48;;;;;;;337.02;195.48;;;;;;;;;;5004789;28;20539;-60
2022/08/22 07:09:18;;;;;;;344.88;200.73;;;;;;;;;;5002384;28;20276;-59
2022/08/22 07:11:44;;;;;;;414.80;239.05;;;;;;;;;;4991876;28;20270;-59
2022/08/22 07:14:13;;;;;;;360.85;206.52;;;;;;;;;;4995635;28;20209;-60
2022/08/22 07:16:50;;;;;;;326.08;184.48;;;;;;;;;;4989999;28;20209;-60
2022/08/22 07:19:31;;;;;;;345.45;201.00;;;;;;;;;;4995018;28;20212;-60
2022/08/22 07:21:57;;;;;;;337.23;201.60;;;;;;;;;;4994756;28;20248;-60
2022/08/22 07:24:30;;;;;;;358.75;213.13;;;;;;;;;;4995184;28;20232;-60
2022/08/22 07:26:56;;;;;;;325.27;193.02;;;;;;;;;;4998699;28;20184;-62
2022/08/22 07:29:41;;;;;;;417.48;236.43;;;;;;;;;;4989196;28;20213;-61
2022/08/22 07:32:27;;;;;;;366.65;213.43;;;;;;;;;;4991972;28;20271;-60
2022/08/22 07:35:09;;;;;;;366.70;213.43;;;;;;;;;;4985884;28;20239;-60
2022/08/22 07:37:45;;;;;;;401.75;232.90;;;;;;;;;;4990361;28;20205;-59
2022/08/22 07:40:17;;;;;;;376.20;220.48;;;;;;;;;;4995535;28;20247;-60
2022/08/22 07:42:48;;;;;;;381.27;222.63;;;;;;;;;;4995336;28;20601;-60
2022/08/22 07:45:27;;;;;;;402.48;228.18;;;;;;;;;;4992579;28;20185;-60
2022/08/22 07:47:53;;;;;;;378.98;221.18;;;;;;;;;;4990840;28;20570;-60
2022/08/22 07:50:22;;;;;;;391.95;223.05;;;;;;;;;;4991070;28;20224;-61
2022/08/22 07:52:49;;;;;;;385.08;222.15;;;;;;;;;;4994464;28;20232;-61
2022/08/22 07:55:17;;;;;;;347.13;206.68;;;;;;;;;;4998655;28;20562;-60
2022/08/22 07:57:46;;;;;;;441.00;250.32;;;;;;;;;;4995632;28;20686;-59
2022/08/22 08:00:17;;;;;;;360.13;215.07;;;;;;;;;;5000212;28;20221;-60
2022/08/22 08:02:45;;;;;;;370.60;212.57;;;;;;;;;;4985988;28;20206;-60
2022/08/22 08:05:12;;;;;;;436.15;251.40;;;;;;;;;;4993105;28;20282;-60
2022/08/22 08:07:39;;;;;;;377.95;224.05;;;;;;;;;;4996458;28;20348;-60
2022/08/22 08:10:07;;;;;;;415.15;232.23;;;;;;;;;;4990924;28;20221;-60
2022/08/22 08:12:38;;;;;;;540.47;292.10;;;;;;;;;;4985276;28;20233;-60
2022/08/22 08:15:07;;;;;;;395.17;232.95;;;;;;;;;;4990034;28;20184;-59
2022/08/22 08:17:34;;;;;;;351.35;208.35;;;;;;;;;;4995844;28;20296;-60
2022/08/22 08:20:02;;;;;;;412.90;245.95;;;;;;;;;;4990896;28;20852;-59
2022/08/22 08:22:29;;;;;;;356.88;216.63;;;;;;;;;;4994888;28;20221;-60
2022/08/22 08:24:56;;;;;;;431.63;256.88;;;;;;;;;;4987499;28;20225;-60
2022/08/22 08:30:13;;;;;;;402.58;238.70;;;;;;;;;;4991631;28;20717;-59
2022/08/22 08:32:41;;;;;;;422.98;248.48;;;;;;;;;;4996970;28;20228;-59
2022/08/22 08:35:17;;;;;;;411.90;247.02;;;;;;;;;;4992028;28;20291;-60
2022/08/22 08:37:48;;;;;;;405.83;244.25;;;;;;;;;;4996753;28;20300;-59
2022/08/22 08:40:32;;;;;;;387.80;239.93;;;;;;;;;;4995344;28;20231;-60
2022/08/22 08:43:33;;;;;;;386.75;237.27;;;;;;;;;;4990466;28;20232;-59
2022/08/22 08:46:02;;;;;;;355.52;220.77;;;;;;;;;;4994428;28;20266;-59
2022/08/22 08:48:47;;;;;;;382.55;235.15;;;;;;;;;;4991720;28;20212;-60
2022/08/22 08:51:17;;;;;;;452.73;267.45;;;;;;;;;;4995143;28;20331;-60
2022/08/22 08:54:02;;;;;;;442.35;262.58;;;;;;;;;;4992359;28;20304;-60
2022/08/22 08:56:37;;;;;;;455.02;270.00;;;;;;;;;;4993828;28;20209;-59
2022/08/22 08:59:23;;;;;;;380.77;235.52;;;;;;;;;;4984837;28;20204;-60
2022/08/22 09:02:04;;;;;;;470.35;270.33;;;;;;;;;;4988062;28;20312;-66
2022/08/22 09:04:30;;;;;;;408.95;232.30;;;;;;;;;;4988841;28;20247;-67
2022/08/22 09:07:15;;;;;;;368.00;213.30;;;;;;;;;;4995330;28;20237;-66
2022/08/22 09:09:47;;;;;;;397.77;225.18;;;;;;;;;;4989881;28;20219;-67
2022/08/22 09:12:15;;;;;;;371.63;212.55;;;;;;;;;;5000100;28;20551;-67
2022/08/22 09:15:08;;;;;;;378.25;220.15;;;;;;;;;;5000897;28;20221;-67
2022/08/22 09:17:34;;;;;;;386.52;227.65;;;;;;;;;;5000628;28;20212;-67
2022/08/22 09:22:30;;;;;;;402.10;232.20;;;;;;;;;;5046395;23;20228;-67
2022/08/22 09:25:15;;;;;;;414.35;233.52;;;;;;;;;;5014864;28;20208;-68
2022/08/22 09:28:07;;;;;;;377.80;215.15;;;;;;;;;;5024048;28;20402;-68
2022/08/22 09:30:52;;;;;;;369.98;215.13;;;;;;;;;;4994046;28;20212;-68
2022/08/22 09:33:21;;;;;;;379.38;218.35;;;;;;;;;;5018952;28;20272;-68
2022/08/22 09:35:52;;;;;;;390.85;229.20;;;;;;;;;;5024542;28;20220;-68
2022/08/22 09:38:30;;;;;;;380.35;227.20;;;;;;;;;;5022501;28;20236;-68
2022/08/22 09:41:05;;;;;;;387.33;232.68;;;;;;;;;;5025283;28;20223;-68
2022/08/22 09:43:37;;;;;;;383.38;226.95;;;;;;;;;;5019069;28;20236;-68
2022/08/22 09:46:11;;;;;;;387.05;226.70;;;;;;;;;;5024374;28;20597;-67
2022/08/22 09:48:37;;;;;;;403.35;231.90;;;;;;;;;;5019897;28;20186;-67
2022/08/22 09:51:14;;;;;;;389.45;232.77;;;;;;;;;;5020543;28;20278;-68
2022/08/22 09:53:59;;;;;;;395.80;231.63;;;;;;;;;;5026924;28;20277;-67
2022/08/22 09:56:36;;;;;;;383.13;222.35;;;;;;;;;;5022996;28;20220;-68
2022/08/22 09:59:05;;;;;;;389.33;224.13;;;;;;;;;;5026561;28;20490;-67
2022/08/22 10:01:55;;;;;;;346.08;204.35;;;;;;;;;;5024621;28;20212;-68
2022/08/22 10:04:40;;;;;;;377.38;217.63;;;;;;;;;;5025024;28;20215;-67
2022/08/22 10:07:23;;;;;;;378.83;223.93;;;;;;;;;;5024938;28;20208;-67
2022/08/22 10:09:55;;;;;;;386.10;218.23;;;;;;;;;;5026249;28;20224;-68
2022/08/22 10:12:31;;;;;;;406.55;236.15;;;;;;;;;;5023332;28;20204;-67
2022/08/22 10:15:09;;;;;;;379.27;222.75;;;;;;;;;;5021055;28;20176;-68
2022/08/22 10:17:45;;;;;;;459.52;263.55;;;;;;;;;;5011957;28;20676;-68
2022/08/22 10:20:34;;;;;;;393.65;228.90;;;;;;;;;;5016945;28;20529;-67
2022/08/22 10:23:03;;;;;;;392.40;229.90;;;;;;;;;;5013078;28;20258;-67
2022/08/22 10:25:35;;;;;;;426.05;242.40;;;;;;;;;;5015491;28;20224;-71
2022/08/22 10:28:21;;;;;;;442.17;258.17;;;;;;;;;;5018812;28;20224;-69
2022/08/22 10:30:59;;;;;;;511.95;289.23;;;;;;;;;;5009306;28;20312;-68
2022/08/22 10:33:34;;;;;;;393.90;234.52;;;;;;;;;;5013208;28;20716;-68
2022/08/22 10:36:07;;;;;;;386.38;226.85;;;;;;;;;;5019552;28;20868;-68
2022/08/22 10:38:39;;;;;;;427.13;249.00;;;;;;;;;;5014276;28;20204;-65
2022/08/22 10:41:13;;;;;;;468.23;279.55;;;;;;;;;;5012483;28;20208;-65
2022/08/22 10:43:43;;;;;;;519.33;293.88;;;;;;;;;;4999943;28;20235;-65
2022/08/22 10:46:12;;;;;;;402.48;238.65;;;;;;;;;;5011140;28;20278;-65
2022/08/22 10:48:41;;;;;;;447.75;255.68;;;;;;;;;;5020214;28;20215;-64
2022/08/22 10:51:14;;;;;;;422.63;248.38;;;;;;;;;;5017569;28;20572;-65
2022/08/22 10:53:45;;;;;;;514.20;290.77;;;;;;;;;;5010979;28;20565;-65
2022/08/22 10:56:12;;;;;;;415.88;243.88;;;;;;;;;;5014698;28;20225;-65
2022/08/22 10:58:47;;;;;;;405.88;236.77;;;;;;;;;;5021773;28;20361;-65
2022/08/22 11:01:14;;;;;;;425.38;244.63;;;;;;;;;;5017077;28;20219;-64
2022/08/22 11:03:55;;;;;;;403.85;244.43;;;;;;;;;;5016542;28;20176;-64
2022/08/22 11:06:30;;;;;;;403.17;241.93;;;;;;;;;;5013406;28;20213;-65
2022/08/22 11:09:07;;;;;;;367.35;224.95;;;;;;;;;;5012149;28;20203;-65
2022/08/22 11:11:53;;;;;;;395.75;243.40;;;;;;;;;;5022197;28;20228;-65
2022/08/22 11:14:42;;;;;;;385.00;225.05;;;;;;;;;;5006959;28;20220;-65
2022/08/22 11:17:17;;;;;;;393.73;240.38;;;;;;;;;;4982901;28;20226;-65
2022/08/22 11:19:55;;;;;;;414.05;234.48;;;;;;;;;;5016049;28;20203;-65
2022/08/22 11:22:40;;;;;;;397.77;229.35;;;;;;;;;;5019273;28;20220;-66
2022/08/22 11:25:15;;;;;;;385.73;244.45;;;;;;;;;;5017556;28;20723;-65
2022/08/22 11:27:49;;;;;;;377.90;225.98;;;;;;;;;;5016523;28;20234;-66
2022/08/22 11:30:18;;;;;;;388.75;224.43;;;;;;;;;;5021453;28;20184;-65
2022/08/22 11:33:02;;;;;;;469.42;264.63;;;;;;;;;;5011915;28;20212;-65
2022/08/22 11:35:50;;;;;;;475.33;269.05;;;;;;;;;;5004807;28;20264;-66
2022/08/22 11:38:20;;;;;;;438.48;251.13;;;;;;;;;;5002630;28;20242;-66
2022/08/22 11:40:57;;;;;;;397.48;230.50;;;;;;;;;;5009963;28;20212;-65
2022/08/22 11:43:26;;;;;;;390.88;227.68;;;;;;;;;;5015934;28;20704;-66
2022/08/22 11:45:55;;;;;;;386.23;222.10;;;;;;;;;;5016121;28;20220;-65
2022/08/22 11:48:40;;;;;;;423.00;242.60;;;;;;;;;;5017794;28;20344;-65
2022/08/22 11:51:21;;;;;;;428.40;244.48;;;;;;;;;;5012849;28;20448;-65
2022/08/22 11:53:53;;;;;;;386.73;222.93;;;;;;;;;;5020517;28;20209;-66
2022/08/22 11:56:28;;;;;;;463.95;260.98;;;;;;;;;;5004251;28;20783;-66
2022/08/22 11:59:04;;;;;;;360.10;213.10;;;;;;;;;;5012520;28;20873;-65
2022/08/22 12:01:30;;;;;;;411.60;232.55;;;;;;;;;;5010999;28;20227;-67
2022/08/22 12:03:59;;;;;;;402.45;226.05;;;;;;;;;;5011182;28;20222;-66
2022/08/22 12:06:40;;;;;;;407.20;232.57;;;;;;;;;;5016650;28;20277;-67
2022/08/22 12:09:21;;;;;;;376.33;214.55;;;;;;;;;;5012700;28;20172;-66
2022/08/22 12:12:02;;;;;;;453.40;265.50;;;;;;;;;;5016131;28;20588;-66
2022/08/22 12:14:28;;;;;;;425.67;256.67;;;;;;;;;;5016361;28;20203;-66
2022/08/22 12:17:00;;;;;;;446.63;266.65;;;;;;;;;;5013102;28;20323;-66
2022/08/22 12:19:45;;;;;;;422.45;249.82;;;;;;;;;;5011235;28;20212;-66
2022/08/22 12:22:29;;;;;;;431.70;245.52;;;;;;;;;;5015727;28;20211;-66
2022/08/22 12:25:02;;;;;;;431.70;244.00;;;;;;;;;;5007580;28;20747;-65
2022/08/22 12:27:37;;;;;;;399.02;225.10;;;;;;;;;;5012193;28;20204;-65
2022/08/22 12:30:08;;;;;;;438.17;242.13;;;;;;;;;;5009898;28;20176;-66
2022/08/22 12:32:53;;;;;;;419.23;236.80;;;;;;;;;;5012045;28;20401;-67
2022/08/22 12:35:24;;;;;;;383.77;223.38;;;;;;;;;;5018698;28;20212;-67
2022/08/22 12:37:58;;;;;;;414.50;233.32;;;;;;;;;;5011332;28;20937;-66
2022/08/22 12:40:35;;;;;;;398.13;234.73;;;;;;;;;;5014620;28;20232;-66
2022/08/22 12:43:04;;;;;;;412.48;238.23;;;;;;;;;;5015788;28;20346;-66
2022/08/22 12:45:58;;;;;;;440.90;259.60;;;;;;;;;;5011549;28;20263;-66
2022/08/22 12:48:33;;;;;;;386.65;223.90;;;;;;;;;;5016954;28;20238;-65
2022/08/22 12:51:11;;;;;;;357.23;210.23;;;;;;;;;;5017603;28;20195;-65
2022/08/22 12:53:40;;;;;;;417.35;239.32;;;;;;;;;;5013427;28;20208;-65
2022/08/22 12:56:15;;;;;;;418.00;240.50;;;;;;;;;;5019782;28;20216;-65
2022/08/22 12:58:51;;;;;;;390.55;225.70;;;;;;;;;;5023268;28;20208;-66
2022/08/22 13:01:17;;;;;;;410.25;233.65;;;;;;;;;;5021191;28;20258;-65
2022/08/22 13:03:49;;;;;;;444.60;248.90;;;;;;;;;;5015109;28;20212;-66
2022/08/22 13:06:34;;;;;;;432.17;249.48;;;;;;;;;;5020941;28;20184;-66
2022/08/22 13:09:00;;;;;;;426.50;244.38;;;;;;;;;;5018394;28;20212;-64
2022/08/22 13:11:27;;;;;;;387.25;230.05;;;;;;;;;;5018063;28;20216;-66
2022/08/22 13:13:58;;;;;;;387.48;225.30;;;;;;;;;;5015041;28;20227;-66
2022/08/22 13:16:25;;;;;;;396.13;239.95;;;;;;;;;;5024582;28;20215;-66
2022/08/22 13:18:56;;;;;;;392.67;237.65;;;;;;;;;;5023454;28;20207;-67
2022/08/22 13:21:26;;;;;;;420.48;241.93;;;;;;;;;;5030572;28;20211;-65
2022/08/22 13:23:53;;;;;;;390.10;227.35;;;;;;;;;;5025754;28;20180;-66
2022/08/22 13:26:21;;;;;;;379.52;230.93;;;;;;;;;;5021460;28;20269;-68
2022/08/22 13:28:49;;;;;;;383.05;233.60;;;;;;;;;;5025235;28;20227;-67
2022/08/22 13:31:32;;;;;;;371.60;231.05;;;;;;;;;;5023185;28;20227;-68
2022/08/22 13:34:02;;;;;;;380.33;228.93;;;;;;;;;;5027915;28;20211;-68
2022/08/22 13:36:30;;;;;;;380.45;235.18;;;;;;;;;;5020831;28;20189;-67
2022/08/22 13:39:01;;;;;;;425.40;251.73;;;;;;;;;;5016047;28;20281;-67
2022/08/22 13:41:29;;;;;;;386.30;235.35;;;;;;;;;;5018982;28;20318;-64
2022/08/22 13:44:18;;;;;;;389.55;228.30;;;;;;;;;;5027349;28;20239;-69
2022/08/22 13:46:44;;;;;;;397.17;237.73;;;;;;;;;;5021005;28;20760;-65
2022/08/22 13:49:11;;;;;;;375.73;224.32;;;;;;;;;;5019298;28;20641;-65
2022/08/22 13:51:40;;;;;;;382.40;225.02;;;;;;;;;;5012893;28;20204;-65
2022/08/22 13:54:09;;;;;;;414.27;232.60;;;;;;;;;;5021300;28;20173;-65
2022/08/22 13:56:54;;;;;;;424.35;249.55;;;;;;;;;;5019787;28;20239;-65
2022/08/22 13:59:38;;;;;;;404.77;238.38;;;;;;;;;;5024183;28;20212;-65
2022/08/22 14:02:23;;;;;;;423.00;244.77;;;;;;;;;;5018058;28;20212;-65
2022/08/22 14:04:51;;;;;;;427.35;246.27;;;;;;;;;;5017930;28;20303;-64
2022/08/22 14:07:22;;;;;;;449.90;259.38;;;;;;;;;;5015666;28;20598;-65
2022/08/22 14:09:48;;;;;;;514.65;292.48;;;;;;;;;;5013297;28;20239;-65
2022/08/22 14:12:18;;;;;;;428.77;240.20;;;;;;;;;;5016936;28;20295;-65
2022/08/22 14:14:45;;;;;;;396.80;230.00;;;;;;;;;;5022331;28;20719;-65
2022/08/22 14:17:19;;;;;;;410.80;241.70;;;;;;;;;;5017933;28;20894;-66
2022/08/22 14:19:57;;;;;;;403.95;228.02;;;;;;;;;;5009287;28;20422;-65
2022/08/22 14:22:25;;;;;;;443.17;246.82;;;;;;;;;;5016498;28;20223;-65
2022/08/22 14:24:54;;;;;;;468.65;267.25;;;;;;;;;;5013110;28;20212;-65
2022/08/22 14:27:37;;;;;;;428.73;247.88;;;;;;;;;;5018938;28;20188;-66
2022/08/22 14:30:21;;;;;;;427.98;242.73;;;;;;;;;;5013162;28;20220;-66
2022/08/22 14:32:53;;;;;;;421.88;240.80;;;;;;;;;;5010032;28;20220;-66
2022/08/22 14:35:19;;;;;;;440.58;252.38;;;;;;;;;;5012118;28;20246;-66